sensor_id;sensor_type;location;lat;lon;timestamp;P1;durP1;ratioP1;P2;durP2;ratioP2
3747;SDS011;1889;50.058;8.688;2023-11-21T00:00:17;3.10;;;1.80;;
3747;SDS011;1889;50.058;8.688;2023-11-21T00:02:47;2.98;;;1.90;;
3747;SDS011;1889;50.058;8.688;2023-11-21T00:05:16;4.78;;;2.30;;
3747;SDS011;1889;50.058;8.688;2023-11-21T00:07:45;3.60;;;1.80;;
3747;SDS011;1889;50.058;8.688;2023-11-21T00:10:15;6.22;;;1.80;;
3747;SDS011;1889;50.058;8.688;2023-11-21T00:12:44;4.50;;;1.52;;
3747;SDS011;1889;50.058;8.688;2023-11-21T00:15:15;3.83;;;1.67;;
3747;SDS011;1889;50.058;8.688;2023-11-21T00:17:44;2.20;;;1.67;;
3747;SDS011;1889;50.058;8.688;2023-11-21T00:20:14;3.27;;;1.92;;
3747;SDS011;1889;50.058;8.688;2023-11-21T00:22:43;4.28;;;1.65;;
3747;SDS011;1889;50.058;8.688;2023-11-21T00:25:14;3.33;;;1.75;;
3747;SDS011;1889;50.058;8.688;2023-11-21T00:27:44;4.03;;;1.80;;
3747;SDS011;1889;50.058;8.688;2023-11-21T00:30:14;3.20;;;1.70;;
3747;SDS011;1889;50.058;8.688;2023-11-21T00:32:43;3.27;;;1.72;;
3747;SDS011;1889;50.058;8.688;2023-11-21T00:35:13;4.17;;;1.80;;
3747;SDS011;1889;50.058;8.688;2023-11-21T00:37:43;3.25;;;1.60;;
3747;SDS011;1889;50.058;8.688;2023-11-21T00:40:13;2.62;;;1.55;;
3747;SDS011;1889;50.058;8.688;2023-11-21T00:42:42;4.30;;;1.95;;
3747;SDS011;1889;50.058;8.688;2023-11-21T00:45:12;1.82;;;1.42;;
3747;SDS011;1889;50.058;8.688;2023-11-21T00:47:41;3.10;;;1.40;;
3747;SDS011;1889;50.058;8.688;2023-11-21T00:50:10;4.20;;;1.70;;
3747;SDS011;1889;50.058;8.688;2023-11-21T00:52:40;3.10;;;1.90;;
3747;SDS011;1889;50.058;8.688;2023-11-21T00:55:09;2.77;;;1.77;;
3747;SDS011;1889;50.058;8.688;2023-11-21T00:57:39;3.80;;;1.90;;
3747;SDS011;1889;50.058;8.688;2023-11-21T01:00:08;2.83;;;1.60;;
3747;SDS011;1889;50.058;8.688;2023-11-21T01:02:45;2.12;;;1.62;;
3747;SDS011;1889;50.058;8.688;2023-11-21T01:05:16;5.78;;;2.20;;
3747;SDS011;1889;50.058;8.688;2023-11-21T01:07:45;4.47;;;2.05;;
3747;SDS011;1889;50.058;8.688;2023-11-21T01:10:14;3.05;;;2.00;;
3747;SDS011;1889;50.058;8.688;2023-11-21T01:12:44;2.52;;;1.87;;
3747;SDS011;1889;50.058;8.688;2023-11-21T01:15:14;2.62;;;2.00;;
3747;SDS011;1889;50.058;8.688;2023-11-21T01:17:43;4.22;;;1.95;;
3747;SDS011;1889;50.058;8.688;2023-11-21T01:20:13;3.85;;;1.92;;
3747;SDS011;1889;50.058;8.688;2023-11-21T01:22:42;4.95;;;2.12;;
3747;SDS011;1889;50.058;8.688;2023-11-21T01:25:12;2.62;;;1.87;;
3747;SDS011;1889;50.058;8.688;2023-11-21T01:27:42;3.55;;;2.02;;
3747;SDS011;1889;50.058;8.688;2023-11-21T01:30:11;2.58;;;2.25;;
3747;SDS011;1889;50.058;8.688;2023-11-21T01:32:41;3.17;;;1.67;;
3747;SDS011;1889;50.058;8.688;2023-11-21T01:35:11;2.27;;;1.95;;
3747;SDS011;1889;50.058;8.688;2023-11-21T01:37:40;6.20;;;2.30;;
3747;SDS011;1889;50.058;8.688;2023-11-21T01:40:10;4.72;;;2.00;;
3747;SDS011;1889;50.058;8.688;2023-11-21T01:42:41;4.62;;;2.02;;
3747;SDS011;1889;50.058;8.688;2023-11-21T01:45:11;3.37;;;2.20;;
3747;SDS011;1889;50.058;8.688;2023-11-21T01:47:41;4.10;;;2.10;;
3747;SDS011;1889;50.058;8.688;2023-11-21T01:50:18;5.25;;;2.60;;
3747;SDS011;1889;50.058;8.688;2023-11-21T01:52:45;7.15;;;2.47;;
3747;SDS011;1889;50.058;8.688;2023-11-21T01:55:16;7.05;;;2.35;;
3747;SDS011;1889;50.058;8.688;2023-11-21T01:57:46;7.35;;;2.70;;
3747;SDS011;1889;50.058;8.688;2023-11-21T02:00:16;8.30;;;2.83;;
3747;SDS011;1889;50.058;8.688;2023-11-21T02:02:47;4.97;;;2.37;;
3747;SDS011;1889;50.058;8.688;2023-11-21T02:05:17;3.85;;;2.52;;
3747;SDS011;1889;50.058;8.688;2023-11-21T02:07:48;4.62;;;2.47;;
3747;SDS011;1889;50.058;8.688;2023-11-21T02:10:19;4.22;;;2.27;;
3747;SDS011;1889;50.058;8.688;2023-11-21T02:12:50;3.62;;;2.50;;
3747;SDS011;1889;50.058;8.688;2023-11-21T02:15:20;2.90;;;2.42;;
3747;SDS011;1889;50.058;8.688;2023-11-21T02:17:50;4.33;;;2.62;;
3747;SDS011;1889;50.058;8.688;2023-11-21T02:20:21;4.47;;;2.25;;
3747;SDS011;1889;50.058;8.688;2023-11-21T02:22:55;3.30;;;2.25;;
3747;SDS011;1889;50.058;8.688;2023-11-21T02:25:26;5.65;;;2.50;;
3747;SDS011;1889;50.058;8.688;2023-11-21T02:27:56;4.80;;;2.47;;
3747;SDS011;1889;50.058;8.688;2023-11-21T02:30:28;3.70;;;2.60;;
3747;SDS011;1889;50.058;8.688;2023-11-21T02:33:00;4.15;;;2.12;;
3747;SDS011;1889;50.058;8.688;2023-11-21T02:35:29;5.95;;;2.50;;
3747;SDS011;1889;50.058;8.688;2023-11-21T02:37:58;2.83;;;2.45;;
3747;SDS011;1889;50.058;8.688;2023-11-21T02:40:28;4.50;;;2.30;;
3747;SDS011;1889;50.058;8.688;2023-11-21T02:42:58;3.33;;;2.42;;
3747;SDS011;1889;50.058;8.688;2023-11-21T02:45:27;3.10;;;1.90;;
3747;SDS011;1889;50.058;8.688;2023-11-21T02:47:56;6.03;;;2.60;;
3747;SDS011;1889;50.058;8.688;2023-11-21T02:50:26;3.92;;;2.15;;
3747;SDS011;1889;50.058;8.688;2023-11-21T02:52:57;5.05;;;2.33;;
3747;SDS011;1889;50.058;8.688;2023-11-21T02:55:27;4.47;;;2.12;;
3747;SDS011;1889;50.058;8.688;2023-11-21T02:57:58;4.90;;;1.92;;
3747;SDS011;1889;50.058;8.688;2023-11-21T03:00:27;2.37;;;2.10;;
3747;SDS011;1889;50.058;8.688;2023-11-21T03:02:56;4.90;;;2.00;;
3747;SDS011;1889;50.058;8.688;2023-11-21T03:05:26;5.25;;;1.90;;
3747;SDS011;1889;50.058;8.688;2023-11-21T03:07:56;2.98;;;2.00;;
3747;SDS011;1889;50.058;8.688;2023-11-21T03:10:25;2.02;;;1.90;;
3747;SDS011;1889;50.058;8.688;2023-11-21T03:12:54;4.00;;;1.90;;
3747;SDS011;1889;50.058;8.688;2023-11-21T03:15:25;2.87;;;2.05;;
3747;SDS011;1889;50.058;8.688;2023-11-21T03:17:54;2.10;;;1.92;;
3747;SDS011;1889;50.058;8.688;2023-11-21T03:20:24;3.83;;;2.08;;
3747;SDS011;1889;50.058;8.688;2023-11-21T03:22:53;3.72;;;2.30;;
3747;SDS011;1889;50.058;8.688;2023-11-21T03:25:23;2.17;;;1.95;;
3747;SDS011;1889;50.058;8.688;2023-11-21T03:27:52;2.33;;;2.12;;
3747;SDS011;1889;50.058;8.688;2023-11-21T03:30:22;2.92;;;2.10;;
3747;SDS011;1889;50.058;8.688;2023-11-21T03:32:51;2.50;;;2.30;;
3747;SDS011;1889;50.058;8.688;2023-11-21T03:35:20;2.00;;;1.80;;
3747;SDS011;1889;50.058;8.688;2023-11-21T03:37:50;2.00;;;1.90;;
3747;SDS011;1889;50.058;8.688;2023-11-21T03:40:20;2.02;;;1.87;;
3747;SDS011;1889;50.058;8.688;2023-11-21T03:42:49;2.40;;;2.10;;
3747;SDS011;1889;50.058;8.688;2023-11-21T03:45:18;3.70;;;1.82;;
3747;SDS011;1889;50.058;8.688;2023-11-21T03:47:48;1.90;;;1.80;;
3747;SDS011;1889;50.058;8.688;2023-11-21T03:50:18;1.98;;;1.80;;
3747;SDS011;1889;50.058;8.688;2023-11-21T03:52:47;2.95;;;1.50;;
3747;SDS011;1889;50.058;8.688;2023-11-21T03:55:16;1.80;;;1.70;;
3747;SDS011;1889;50.058;8.688;2023-11-21T03:57:46;2.47;;;1.65;;
3747;SDS011;1889;50.058;8.688;2023-11-21T04:00:15;2.10;;;1.45;;
3747;SDS011;1889;50.058;8.688;2023-11-21T04:02:45;1.30;;;1.20;;
3747;SDS011;1889;50.058;8.688;2023-11-21T04:05:15;1.07;;;1.02;;
3747;SDS011;1889;50.058;8.688;2023-11-21T04:07:44;3.70;;;1.37;;
3747;SDS011;1889;50.058;8.688;2023-11-21T04:10:13;1.57;;;1.35;;
3747;SDS011;1889;50.058;8.688;2023-11-21T04:12:43;1.35;;;1.10;;
3747;SDS011;1889;50.058;8.688;2023-11-21T04:15:12;2.15;;;1.30;;
3747;SDS011;1889;50.058;8.688;2023-11-21T04:17:42;1.15;;;1.00;;
3747;SDS011;1889;50.058;8.688;2023-11-21T04:20:12;1.20;;;1.10;;
3747;SDS011;1889;50.058;8.688;2023-11-21T04:22:43;1.87;;;1.20;;
3747;SDS011;1889;50.058;8.688;2023-11-21T04:25:13;3.12;;;1.62;;
3747;SDS011;1889;50.058;8.688;2023-11-21T04:27:43;1.65;;;1.42;;
3747;SDS011;1889;50.058;8.688;2023-11-21T04:30:13;2.00;;;1.60;;
3747;SDS011;1889;50.058;8.688;2023-11-21T04:32:43;2.25;;;1.40;;
3747;SDS011;1889;50.058;8.688;2023-11-21T04:35:12;1.45;;;1.30;;
3747;SDS011;1889;50.058;8.688;2023-11-21T04:37:42;1.70;;;1.57;;
3747;SDS011;1889;50.058;8.688;2023-11-21T04:40:11;2.33;;;1.57;;
3747;SDS011;1889;50.058;8.688;2023-11-21T04:42:40;1.67;;;1.47;;
3747;SDS011;1889;50.058;8.688;2023-11-21T04:45:10;3.00;;;1.67;;
3747;SDS011;1889;50.058;8.688;2023-11-21T04:47:39;1.70;;;1.60;;
3747;SDS011;1889;50.058;8.688;2023-11-21T04:50:09;1.60;;;1.45;;
3747;SDS011;1889;50.058;8.688;2023-11-21T04:52:38;1.35;;;1.25;;
3747;SDS011;1889;50.058;8.688;2023-11-21T04:55:07;3.62;;;1.40;;
3747;SDS011;1889;50.058;8.688;2023-11-21T04:57:37;3.52;;;1.70;;
3747;SDS011;1889;50.058;8.688;2023-11-21T05:00:09;1.42;;;1.32;;
3747;SDS011;1889;50.058;8.688;2023-11-21T05:02:40;1.10;;;0.80;;
3747;SDS011;1889;50.058;8.688;2023-11-21T05:05:11;1.40;;;1.30;;
3747;SDS011;1889;50.058;8.688;2023-11-21T05:07:41;1.30;;;1.20;;
3747;SDS011;1889;50.058;8.688;2023-11-21T05:10:11;1.50;;;1.30;;
3747;SDS011;1889;50.058;8.688;2023-11-21T05:12:42;3.72;;;1.32;;
3747;SDS011;1889;50.058;8.688;2023-11-21T05:15:13;3.25;;;1.30;;
3747;SDS011;1889;50.058;8.688;2023-11-21T05:17:43;3.27;;;1.57;;
3747;SDS011;1889;50.058;8.688;2023-11-21T05:20:14;5.15;;;1.40;;
3747;SDS011;1889;50.058;8.688;2023-11-21T05:22:45;1.65;;;1.55;;
3747;SDS011;1889;50.058;8.688;2023-11-21T05:25:16;2.87;;;1.82;;
3747;SDS011;1889;50.058;8.688;2023-11-21T05:27:46;1.67;;;1.57;;
3747;SDS011;1889;50.058;8.688;2023-11-21T05:30:16;2.12;;;1.92;;
3747;SDS011;1889;50.058;8.688;2023-11-21T05:32:45;1.70;;;1.60;;
3747;SDS011;1889;50.058;8.688;2023-11-21T05:35:15;3.02;;;1.72;;
3747;SDS011;1889;50.058;8.688;2023-11-21T05:37:44;2.72;;;1.87;;
3747;SDS011;1889;50.058;8.688;2023-11-21T05:40:14;2.33;;;1.92;;
3747;SDS011;1889;50.058;8.688;2023-11-21T05:42:44;2.33;;;1.98;;
3747;SDS011;1889;50.058;8.688;2023-11-21T05:45:13;1.75;;;1.65;;
3747;SDS011;1889;50.058;8.688;2023-11-21T05:47:43;3.77;;;2.10;;
3747;SDS011;1889;50.058;8.688;2023-11-21T05:50:14;2.83;;;2.22;;
3747;SDS011;1889;50.058;8.688;2023-11-21T05:52:45;2.58;;;2.37;;
3747;SDS011;1889;50.058;8.688;2023-11-21T05:55:15;3.62;;;2.27;;
3747;SDS011;1889;50.058;8.688;2023-11-21T05:57:45;3.33;;;2.90;;
3747;SDS011;1889;50.058;8.688;2023-11-21T06:00:14;4.90;;;2.92;;
3747;SDS011;1889;50.058;8.688;2023-11-21T06:02:52;3.35;;;2.75;;
3747;SDS011;1889;50.058;8.688;2023-11-21T06:05:22;3.72;;;3.30;;
3747;SDS011;1889;50.058;8.688;2023-11-21T06:07:54;3.50;;;3.20;;
3747;SDS011;1889;50.058;8.688;2023-11-21T06:10:25;4.22;;;3.83;;
3747;SDS011;1889;50.058;8.688;2023-11-21T06:12:55;5.83;;;4.75;;
3747;SDS011;1889;50.058;8.688;2023-11-21T06:15:25;8.93;;;4.95;;
3747;SDS011;1889;50.058;8.688;2023-11-21T06:17:55;6.45;;;5.42;;
3747;SDS011;1889;50.058;8.688;2023-11-21T06:20:24;6.78;;;5.62;;
3747;SDS011;1889;50.058;8.688;2023-11-21T06:22:53;7.12;;;5.67;;
3747;SDS011;1889;50.058;8.688;2023-11-21T06:25:23;10.48;;;7.28;;
3747;SDS011;1889;50.058;8.688;2023-11-21T06:27:52;8.58;;;6.95;;
3747;SDS011;1889;50.058;8.688;2023-11-21T06:30:22;7.42;;;6.55;;
3747;SDS011;1889;50.058;8.688;2023-11-21T06:32:51;10.88;;;6.92;;
3747;SDS011;1889;50.058;8.688;2023-11-21T06:35:20;8.28;;;6.40;;
3747;SDS011;1889;50.058;8.688;2023-11-21T06:37:50;9.63;;;7.17;;
3747;SDS011;1889;50.058;8.688;2023-11-21T06:40:19;9.68;;;7.65;;
3747;SDS011;1889;50.058;8.688;2023-11-21T06:42:48;9.90;;;7.80;;
3747;SDS011;1889;50.058;8.688;2023-11-21T06:45:18;11.43;;;8.13;;
3747;SDS011;1889;50.058;8.688;2023-11-21T06:47:47;10.63;;;7.65;;
3747;SDS011;1889;50.058;8.688;2023-11-21T06:50:17;11.70;;;8.20;;
3747;SDS011;1889;50.058;8.688;2023-11-21T06:52:46;10.30;;;8.55;;
3747;SDS011;1889;50.058;8.688;2023-11-21T06:55:16;10.68;;;8.65;;
3747;SDS011;1889;50.058;8.688;2023-11-21T06:57:45;13.65;;;8.38;;
3747;SDS011;1889;50.058;8.688;2023-11-21T07:00:15;15.38;;;9.18;;
3747;SDS011;1889;50.058;8.688;2023-11-21T07:02:46;12.25;;;8.60;;
3747;SDS011;1889;50.058;8.688;2023-11-21T07:05:15;10.10;;;7.72;;
3747;SDS011;1889;50.058;8.688;2023-11-21T07:07:46;9.05;;;6.45;;
3747;SDS011;1889;50.058;8.688;2023-11-21T07:10:16;9.08;;;7.08;;
3747;SDS011;1889;50.058;8.688;2023-11-21T07:12:45;10.23;;;6.65;;
3747;SDS011;1889;50.058;8.688;2023-11-21T07:15:15;7.58;;;5.78;;
3747;SDS011;1889;50.058;8.688;2023-11-21T07:17:44;8.48;;;5.75;;
3747;SDS011;1889;50.058;8.688;2023-11-21T07:20:14;6.87;;;5.62;;
3747;SDS011;1889;50.058;8.688;2023-11-21T07:22:44;6.20;;;4.85;;
3747;SDS011;1889;50.058;8.688;2023-11-21T07:25:13;6.47;;;5.58;;
3747;SDS011;1889;50.058;8.688;2023-11-21T07:27:43;8.15;;;4.95;;
3747;SDS011;1889;50.058;8.688;2023-11-21T07:30:13;6.97;;;5.47;;
3747;SDS011;1889;50.058;8.688;2023-11-21T07:32:42;6.03;;;5.20;;
3747;SDS011;1889;50.058;8.688;2023-11-21T07:35:12;7.35;;;4.83;;
3747;SDS011;1889;50.058;8.688;2023-11-21T07:37:41;5.80;;;4.55;;
3747;SDS011;1889;50.058;8.688;2023-11-21T07:40:11;7.17;;;5.03;;
3747;SDS011;1889;50.058;8.688;2023-11-21T07:42:40;5.47;;;4.72;;
3747;SDS011;1889;50.058;8.688;2023-11-21T07:45:10;6.15;;;5.30;;
3747;SDS011;1889;50.058;8.688;2023-11-21T07:47:39;6.35;;;4.87;;
3747;SDS011;1889;50.058;8.688;2023-11-21T07:50:09;6.87;;;4.62;;
3747;SDS011;1889;50.058;8.688;2023-11-21T07:52:38;6.25;;;4.30;;
3747;SDS011;1889;50.058;8.688;2023-11-21T07:55:07;6.47;;;4.97;;
3747;SDS011;1889;50.058;8.688;2023-11-21T07:57:37;6.42;;;4.70;;
3747;SDS011;1889;50.058;8.688;2023-11-21T08:00:06;7.60;;;4.83;;
3747;SDS011;1889;50.058;8.688;2023-11-21T08:02:39;6.08;;;4.50;;
3747;SDS011;1889;50.058;8.688;2023-11-21T08:05:11;5.08;;;4.30;;
3747;SDS011;1889;50.058;8.688;2023-11-21T08:07:40;5.55;;;4.40;;
3747;SDS011;1889;50.058;8.688;2023-11-21T08:10:10;6.03;;;4.87;;
3747;SDS011;1889;50.058;8.688;2023-11-21T08:12:39;5.85;;;4.62;;
3747;SDS011;1889;50.058;8.688;2023-11-21T08:15:10;6.33;;;4.87;;
3747;SDS011;1889;50.058;8.688;2023-11-21T08:17:39;6.08;;;5.28;;
3747;SDS011;1889;50.058;8.688;2023-11-21T08:20:09;6.80;;;5.42;;
3747;SDS011;1889;50.058;8.688;2023-11-21T08:22:43;8.28;;;4.72;;
3747;SDS011;1889;50.058;8.688;2023-11-21T08:25:15;5.62;;;5.03;;
3747;SDS011;1889;50.058;8.688;2023-11-21T08:27:46;7.20;;;5.05;;
3747;SDS011;1889;50.058;8.688;2023-11-21T08:30:16;6.47;;;5.33;;
3747;SDS011;1889;50.058;8.688;2023-11-21T08:32:46;8.10;;;5.28;;
3747;SDS011;1889;50.058;8.688;2023-11-21T08:35:15;7.85;;;5.40;;
3747;SDS011;1889;50.058;8.688;2023-11-21T08:37:45;6.45;;;5.17;;
3747;SDS011;1889;50.058;8.688;2023-11-21T08:40:14;6.22;;;4.67;;
3747;SDS011;1889;50.058;8.688;2023-11-21T08:42:44;7.00;;;5.45;;
3747;SDS011;1889;50.058;8.688;2023-11-21T08:45:20;5.97;;;5.15;;
3747;SDS011;1889;50.058;8.688;2023-11-21T08:47:45;6.45;;;5.28;;
3747;SDS011;1889;50.058;8.688;2023-11-21T08:50:14;5.85;;;5.05;;
3747;SDS011;1889;50.058;8.688;2023-11-21T08:52:44;7.25;;;5.67;;
3747;SDS011;1889;50.058;8.688;2023-11-21T08:55:14;6.80;;;5.70;;
3747;SDS011;1889;50.058;8.688;2023-11-21T08:57:44;6.00;;;5.03;;
3747;SDS011;1889;50.058;8.688;2023-11-21T09:00:14;8.05;;;6.22;;
3747;SDS011;1889;50.058;8.688;2023-11-21T09:02:45;8.05;;;6.08;;
3747;SDS011;1889;50.058;8.688;2023-11-21T09:05:15;7.30;;;5.65;;
3747;SDS011;1889;50.058;8.688;2023-11-21T09:07:45;10.23;;;6.15;;
3747;SDS011;1889;50.058;8.688;2023-11-21T09:10:16;7.85;;;5.90;;
3747;SDS011;1889;50.058;8.688;2023-11-21T09:12:45;8.53;;;5.85;;
3747;SDS011;1889;50.058;8.688;2023-11-21T09:15:14;9.90;;;6.67;;
3747;SDS011;1889;50.058;8.688;2023-11-21T09:17:43;7.05;;;5.20;;
3747;SDS011;1889;50.058;8.688;2023-11-21T09:20:13;7.97;;;6.37;;
3747;SDS011;1889;50.058;8.688;2023-11-21T09:22:43;8.23;;;5.78;;
3747;SDS011;1889;50.058;8.688;2023-11-21T09:25:13;8.95;;;5.97;;
3747;SDS011;1889;50.058;8.688;2023-11-21T09:27:42;8.23;;;5.62;;
3747;SDS011;1889;50.058;8.688;2023-11-21T09:30:13;8.80;;;5.70;;
3747;SDS011;1889;50.058;8.688;2023-11-21T09:32:42;8.33;;;5.35;;
3747;SDS011;1889;50.058;8.688;2023-11-21T09:35:12;6.45;;;5.12;;
3747;SDS011;1889;50.058;8.688;2023-11-21T09:37:42;7.75;;;5.22;;
3747;SDS011;1889;50.058;8.688;2023-11-21T09:40:15;7.00;;;5.67;;
3747;SDS011;1889;50.058;8.688;2023-11-21T09:42:48;6.42;;;4.70;;
3747;SDS011;1889;50.058;8.688;2023-11-21T09:45:26;6.00;;;4.78;;
3747;SDS011;1889;50.058;8.688;2023-11-21T09:47:58;5.92;;;4.70;;
3747;SDS011;1889;50.058;8.688;2023-11-21T09:50:28;8.28;;;4.95;;
3747;SDS011;1889;50.058;8.688;2023-11-21T09:53:11;5.28;;;4.58;;
3747;SDS011;1889;50.058;8.688;2023-11-21T09:55:44;9.23;;;4.60;;
3747;SDS011;1889;50.058;8.688;2023-11-21T09:58:15;7.03;;;5.08;;
3747;SDS011;1889;50.058;8.688;2023-11-21T10:00:47;6.42;;;4.65;;
3747;SDS011;1889;50.058;8.688;2023-11-21T10:03:17;8.60;;;4.97;;
3747;SDS011;1889;50.058;8.688;2023-11-21T10:05:46;6.10;;;4.90;;
3747;SDS011;1889;50.058;8.688;2023-11-21T10:08:18;7.47;;;5.28;;
3747;SDS011;1889;50.058;8.688;2023-11-21T10:10:49;6.85;;;4.65;;
3747;SDS011;1889;50.058;8.688;2023-11-21T10:13:21;6.12;;;4.55;;
3747;SDS011;1889;50.058;8.688;2023-11-21T10:15:51;9.93;;;4.85;;
3747;SDS011;1889;50.058;8.688;2023-11-21T10:18:20;8.33;;;4.80;;
3747;SDS011;1889;50.058;8.688;2023-11-21T10:20:52;8.35;;;4.90;;
3747;SDS011;1889;50.058;8.688;2023-11-21T10:23:23;6.97;;;4.83;;
3747;SDS011;1889;50.058;8.688;2023-11-21T10:25:53;7.30;;;4.70;;
3747;SDS011;1889;50.058;8.688;2023-11-21T10:28:26;7.20;;;4.40;;
3747;SDS011;1889;50.058;8.688;2023-11-21T10:30:56;6.42;;;4.62;;
3747;SDS011;1889;50.058;8.688;2023-11-21T10:33:28;7.20;;;4.70;;
3747;SDS011;1889;50.058;8.688;2023-11-21T10:35:57;7.47;;;4.50;;
3747;SDS011;1889;50.058;8.688;2023-11-21T10:38:28;5.65;;;4.37;;
3747;SDS011;1889;50.058;8.688;2023-11-21T10:41:02;5.37;;;4.10;;
3747;SDS011;1889;50.058;8.688;2023-11-21T10:43:33;7.10;;;4.42;;
3747;SDS011;1889;50.058;8.688;2023-11-21T10:46:02;7.28;;;4.22;;
3747;SDS011;1889;50.058;8.688;2023-11-21T10:48:33;6.87;;;4.03;;
3747;SDS011;1889;50.058;8.688;2023-11-21T10:51:06;6.83;;;4.30;;
3747;SDS011;1889;50.058;8.688;2023-11-21T10:53:40;5.40;;;3.98;;
3747;SDS011;1889;50.058;8.688;2023-11-21T10:56:13;5.10;;;3.65;;
3747;SDS011;1889;50.058;8.688;2023-11-21T10:58:45;6.97;;;4.20;;
3747;SDS011;1889;50.058;8.688;2023-11-21T11:01:14;7.17;;;4.40;;
3747;SDS011;1889;50.058;8.688;2023-11-21T11:03:48;5.37;;;3.12;;
3747;SDS011;1889;50.058;8.688;2023-11-21T11:06:21;7.37;;;3.60;;
3747;SDS011;1889;50.058;8.688;2023-11-21T11:08:51;6.37;;;3.60;;
3747;SDS011;1889;50.058;8.688;2023-11-21T11:11:20;5.60;;;3.42;;
3747;SDS011;1889;50.058;8.688;2023-11-21T11:13:49;5.47;;;3.42;;
3747;SDS011;1889;50.058;8.688;2023-11-21T11:16:21;4.67;;;3.55;;
3747;SDS011;1889;50.058;8.688;2023-11-21T11:18:52;6.30;;;3.55;;
3747;SDS011;1889;50.058;8.688;2023-11-21T11:24:11;9.05;;;4.08;;
3747;SDS011;1889;50.058;8.688;2023-11-21T11:27:01;6.00;;;4.33;;
3747;SDS011;1889;50.058;8.688;2023-11-21T11:30:02;10.13;;;3.77;;
3747;SDS011;1889;50.058;8.688;2023-11-21T11:35:10;4.55;;;4.03;;
3747;SDS011;1889;50.058;8.688;2023-11-21T11:37:54;5.42;;;3.58;;
3747;SDS011;1889;50.058;8.688;2023-11-21T11:40:25;4.40;;;3.77;;
3747;SDS011;1889;50.058;8.688;2023-11-21T11:43:00;6.37;;;3.55;;
3747;SDS011;1889;50.058;8.688;2023-11-21T11:45:33;7.67;;;3.77;;
3747;SDS011;1889;50.058;8.688;2023-11-21T11:48:05;5.72;;;4.00;;
3747;SDS011;1889;50.058;8.688;2023-11-21T11:50:34;7.35;;;3.90;;
3747;SDS011;1889;50.058;8.688;2023-11-21T11:53:13;7.65;;;4.65;;
3747;SDS011;1889;50.058;8.688;2023-11-21T11:55:43;7.08;;;5.90;;
3747;SDS011;1889;50.058;8.688;2023-11-21T11:58:13;5.55;;;4.28;;
3747;SDS011;1889;50.058;8.688;2023-11-21T12:00:42;6.42;;;4.42;;
3747;SDS011;1889;50.058;8.688;2023-11-21T12:03:13;5.25;;;4.03;;
3747;SDS011;1889;50.058;8.688;2023-11-21T12:05:44;6.05;;;4.20;;
3747;SDS011;1889;50.058;8.688;2023-11-21T12:08:17;5.67;;;3.95;;
3747;SDS011;1889;50.058;8.688;2023-11-21T12:10:46;4.30;;;3.90;;
3747;SDS011;1889;50.058;8.688;2023-11-21T12:13:16;5.28;;;3.83;;
3747;SDS011;1889;50.058;8.688;2023-11-21T12:15:45;6.33;;;4.10;;
3747;SDS011;1889;50.058;8.688;2023-11-21T12:18:15;4.25;;;3.60;;
3747;SDS011;1889;50.058;8.688;2023-11-21T12:20:44;5.80;;;3.55;;
3747;SDS011;1889;50.058;8.688;2023-11-21T12:23:15;5.75;;;3.60;;
3747;SDS011;1889;50.058;8.688;2023-11-21T12:25:45;5.58;;;3.45;;
3747;SDS011;1889;50.058;8.688;2023-11-21T12:28:14;5.78;;;3.80;;
3747;SDS011;1889;50.058;8.688;2023-11-21T12:30:44;6.25;;;4.15;;
3747;SDS011;1889;50.058;8.688;2023-11-21T12:33:13;9.38;;;4.30;;
3747;SDS011;1889;50.058;8.688;2023-11-21T12:35:44;6.37;;;4.37;;
3747;SDS011;1889;50.058;8.688;2023-11-21T12:38:14;9.05;;;4.80;;
3747;SDS011;1889;50.058;8.688;2023-11-21T12:40:44;6.85;;;4.35;;
3747;SDS011;1889;50.058;8.688;2023-11-21T12:43:14;9.08;;;3.98;;
3747;SDS011;1889;50.058;8.688;2023-11-21T12:45:43;4.90;;;4.15;;
3747;SDS011;1889;50.058;8.688;2023-11-21T12:48:12;8.75;;;4.50;;
3747;SDS011;1889;50.058;8.688;2023-11-21T12:50:43;5.83;;;4.30;;
3747;SDS011;1889;50.058;8.688;2023-11-21T12:53:14;5.28;;;3.80;;
3747;SDS011;1889;50.058;8.688;2023-11-21T12:55:44;5.28;;;3.85;;
3747;SDS011;1889;50.058;8.688;2023-11-21T12:58:17;7.90;;;4.30;;
3747;SDS011;1889;50.058;8.688;2023-11-21T13:00:50;5.22;;;3.98;;
3747;SDS011;1889;50.058;8.688;2023-11-21T13:03:21;7.05;;;3.95;;
3747;SDS011;1889;50.058;8.688;2023-11-21T13:05:52;5.45;;;3.75;;
3747;SDS011;1889;50.058;8.688;2023-11-21T13:08:24;5.60;;;3.90;;
3747;SDS011;1889;50.058;8.688;2023-11-21T13:10:56;6.45;;;3.60;;
3747;SDS011;1889;50.058;8.688;2023-11-21T13:13:27;8.10;;;4.22;;
3747;SDS011;1889;50.058;8.688;2023-11-21T13:15:58;5.47;;;3.67;;
3747;SDS011;1889;50.058;8.688;2023-11-21T13:18:31;5.25;;;3.50;;
3747;SDS011;1889;50.058;8.688;2023-11-21T13:21:02;3.95;;;3.47;;
3747;SDS011;1889;50.058;8.688;2023-11-21T13:23:36;5.60;;;3.47;;
3747;SDS011;1889;50.058;8.688;2023-11-21T13:26:06;3.70;;;3.30;;
3747;SDS011;1889;50.058;8.688;2023-11-21T13:28:36;6.53;;;3.27;;
3747;SDS011;1889;50.058;8.688;2023-11-21T13:31:07;7.22;;;3.50;;
3747;SDS011;1889;50.058;8.688;2023-11-21T13:33:50;6.25;;;3.72;;
3747;SDS011;1889;50.058;8.688;2023-11-21T13:36:22;4.17;;;3.20;;
3747;SDS011;1889;50.058;8.688;2023-11-21T13:38:51;5.53;;;3.17;;
3747;SDS011;1889;50.058;8.688;2023-11-21T13:41:21;5.22;;;3.47;;
3747;SDS011;1889;50.058;8.688;2023-11-21T13:43:52;5.28;;;3.40;;
3747;SDS011;1889;50.058;8.688;2023-11-21T13:46:23;4.37;;;3.20;;
3747;SDS011;1889;50.058;8.688;2023-11-21T13:48:52;7.42;;;3.50;;
3747;SDS011;1889;50.058;8.688;2023-11-21T13:51:23;4.62;;;3.20;;
3747;SDS011;1889;50.058;8.688;2023-11-21T13:53:54;3.85;;;3.00;;
3747;SDS011;1889;50.058;8.688;2023-11-21T13:56:23;5.03;;;3.30;;
3747;SDS011;1889;50.058;8.688;2023-11-21T13:58:54;5.22;;;3.27;;
3747;SDS011;1889;50.058;8.688;2023-11-21T14:01:23;6.75;;;3.00;;
3747;SDS011;1889;50.058;8.688;2023-11-21T14:04:00;4.97;;;3.33;;
3747;SDS011;1889;50.058;8.688;2023-11-21T14:06:32;4.25;;;3.02;;
3747;SDS011;1889;50.058;8.688;2023-11-21T14:09:03;5.87;;;3.58;;
3747;SDS011;1889;50.058;8.688;2023-11-21T14:11:32;4.58;;;3.02;;
3747;SDS011;1889;50.058;8.688;2023-11-21T14:14:03;5.30;;;3.50;;
3747;SDS011;1889;50.058;8.688;2023-11-21T14:16:33;3.87;;;3.17;;
3747;SDS011;1889;50.058;8.688;2023-11-21T14:19:02;5.67;;;3.27;;
3747;SDS011;1889;50.058;8.688;2023-11-21T14:21:33;6.62;;;3.15;;
3747;SDS011;1889;50.058;8.688;2023-11-21T14:24:02;4.28;;;2.92;;
3747;SDS011;1889;50.058;8.688;2023-11-21T14:26:33;4.85;;;3.22;;
3747;SDS011;1889;50.058;8.688;2023-11-21T14:29:03;4.87;;;3.30;;
3747;SDS011;1889;50.058;8.688;2023-11-21T14:31:33;5.33;;;3.55;;
3747;SDS011;1889;50.058;8.688;2023-11-21T14:34:02;5.15;;;3.50;;
3747;SDS011;1889;50.058;8.688;2023-11-21T14:36:34;4.83;;;3.10;;
3747;SDS011;1889;50.058;8.688;2023-11-21T14:39:05;4.50;;;3.00;;
3747;SDS011;1889;50.058;8.688;2023-11-21T14:41:37;5.17;;;3.80;;
3747;SDS011;1889;50.058;8.688;2023-11-21T14:44:06;5.70;;;3.30;;
3747;SDS011;1889;50.058;8.688;2023-11-21T14:46:38;4.15;;;3.22;;
3747;SDS011;1889;50.058;8.688;2023-11-21T14:49:10;6.00;;;3.65;;
3747;SDS011;1889;50.058;8.688;2023-11-21T14:51:51;5.87;;;3.55;;
3747;SDS011;1889;50.058;8.688;2023-11-21T14:54:34;7.60;;;3.40;;
3747;SDS011;1889;50.058;8.688;2023-11-21T14:57:12;8.13;;;4.03;;
3747;SDS011;1889;50.058;8.688;2023-11-21T14:59:47;5.45;;;4.10;;
3747;SDS011;1889;50.058;8.688;2023-11-21T15:02:22;5.25;;;3.92;;
3747;SDS011;1889;50.058;8.688;2023-11-21T15:04:53;5.58;;;4.10;;
3747;SDS011;1889;50.058;8.688;2023-11-21T15:07:24;6.78;;;4.72;;
3747;SDS011;1889;50.058;8.688;2023-11-21T15:09:54;7.58;;;4.33;;
3747;SDS011;1889;50.058;8.688;2023-11-21T15:12:24;7.45;;;4.85;;
3747;SDS011;1889;50.058;8.688;2023-11-21T15:14:55;6.50;;;4.92;;
3747;SDS011;1889;50.058;8.688;2023-11-21T15:17:24;6.35;;;5.10;;
3747;SDS011;1889;50.058;8.688;2023-11-21T15:19:54;6.55;;;4.80;;
3747;SDS011;1889;50.058;8.688;2023-11-21T15:22:24;8.03;;;5.40;;
3747;SDS011;1889;50.058;8.688;2023-11-21T15:24:55;7.40;;;5.17;;
3747;SDS011;1889;50.058;8.688;2023-11-21T15:27:25;11.83;;;8.05;;
3747;SDS011;1889;50.058;8.688;2023-11-21T15:29:54;8.90;;;5.30;;
3747;SDS011;1889;50.058;8.688;2023-11-21T15:32:24;7.80;;;5.37;;
3747;SDS011;1889;50.058;8.688;2023-11-21T15:34:54;12.65;;;5.47;;
3747;SDS011;1889;50.058;8.688;2023-11-21T15:37:23;12.73;;;11.38;;
3747;SDS011;1889;50.058;8.688;2023-11-21T15:39:54;8.58;;;7.00;;